ODX weather

Evelyn Sharp Field
Ord, Nebraska, United States

Public forecast

Using degrees Fahrenheit for public forecast. Weather courtesy of forecast.io.

Current aviation weather report (METAR) for Evelyn Sharp Field

Retrieved 2019/10/16 15:53 UTC (52 minutes ago):

KODX 161553Z AUTO 14003KT 10SM CLR 06/01 A3019 RMK AO2 SLP240 T00610011

Closest aviation forecast (TAF) to Evelyn Sharp Field

Closest forecast is Central Nebraska Regional Airport, 48.9 nm (90.6 km) SE. Retrieved 2019/10/16 12:36 UTC (4 hours ago):

TAF KGRI 161133Z 1612/1712 VRB03KT P6SM SKC FM161700 20006KT P6SM FEW250 FM170100 16005KT P6SM FEW250